Latest Weather Observations for Rhyll

IDV60901

Issued at 9:51 am EST Wednesday 1 June 2016 (issued every 10 minutes, with the page automatically refreshed every 10 minutes)

About weather observations | Map of Melbourne area stations | Latest observations for Melbourne area | Other Formats
Station Details ID: 086373 Name: RHYLL Lat: -38.46 Lon: 145.31 Height: 13.4 m
Data from the previous 72 hours. | See also: Recent months at Rhyll
Date/Time
EST
Tmp

°C
App
Tmp
°C
Dew
Point
°C
Rel
Hum
%
Delta-T

°C
Wind Press
QNH
hPa
Press
MSL
hPa
Rain
since
9 am
mm
Dir
 
Spd
km/h
Gust
km/h
Spd
kts
Gust
kts
01/09:30am 11.6 10.3 9.2 85 1.2 NE 6 6 3 3 1029.4 1029.4 0.0
01/09:00am 9.9 8.3 8.0 88 0.9 NNE 6 9 3 5 1029.4 1029.4 0.0
01/08:30am 9.5 8.4 8.6 94 0.4 NNW 4 7 2 4 1029.2 1029.2 0.0
01/08:00am 8.7 7.1 7.8 94 0.4 N 6 7 3 4 1029.1 1029.1 0.0
01/07:30am 8.5 6.8 7.7 95 0.4 NNW 6 7 3 4 1028.9 1028.9 0.0
01/07:00am 8.4 6.8 7.8 96 0.3 NNW 6 7 3 4 1028.7 1028.7 0.0
01/06:30am 8.6 7.0 8.0 96 0.3 NW 6 7 3 4 1028.5 1028.5 0.0
01/06:00am 8.8 7.2 8.0 95 0.4 NW 6 7 3 4 1028.2 1028.2 0.0
01/05:30am 8.9 7.3 8.1 95 0.4 NW 6 7 3 4 1028.0 1028.0 0.0
01/05:00am 8.9 7.3 8.1 95 0.4 WNW 6 7 3 4 1027.9 1027.9 0.0
01/04:30am 9.0 7.4 8.1 94 0.4 NNW 6 6 3 3 1027.9 1027.9 0.0
01/04:00am 9.1 8.3 8.2 94 0.4 NNW 2 4 1 2 1028.0 1028.0 0.0
01/03:30am 9.4 8.3 8.3 93 0.5 WNW 4 6 2 3 1028.2 1028.2 0.0
01/03:00am 8.9 7.5 7.4 90 0.7 N 4 6 2 3 1028.4 1028.4 0.0
01/02:30am 9.8 8.4 8.9 94 0.4 N 6 7 3 4 1028.5 1028.5 0.0
01/02:00am 8.6 7.8 8.0 96 0.3 NE 2 2 1 1 1028.5 1028.5 0.0
01/01:30am 8.7 7.1 8.1 96 0.3 ENE 6 7 3 4 1028.5 1028.5 0.0
01/01:00am 8.7 7.5 7.9 95 0.4 ESE 4 4 2 2 1028.5 1028.5 0.0
01/12:30am 9.0 8.6 8.4 96 0.3 CALM 0 0 0 0 1028.8 1028.8 0.0
01/12:00am 9.1 8.3 8.3 95 0.4 ENE 2 2 1 1 1029.0 1029.0 0.0
 
Date/Time
EST
Tmp

°C
App
Tmp
°C
Dew
Point
°C
Rel
Hum
%
Delta-T

°C
Wind Press
QNH
hPa
Press
MSL
hPa
Rain
since
9 am
mm
Dir
 
Spd
km/h
Gust
km/h
Spd
kts
Gust
kts
31/11:30pm 8.5 7.6 7.6 94 0.4 ENE 2 4 1 2 1029.2 1029.2 0.0
31/11:00pm 8.8 8.3 7.7 93 0.5 CALM 0 0 0 0 1029.3 1029.3 0.0
31/10:30pm 9.3 8.1 8.1 92 0.6 E 4 6 2 3 1029.3 1029.3 0.0
31/10:00pm 9.7 7.6 8.3 91 0.7 ENE 9 9 5 5 1029.4 1029.4 0.0
31/09:30pm 9.8 8.1 8.2 90 0.8 ESE 7 9 4 5 1029.4 1029.4 0.0
31/09:00pm 10.1 8.4 8.2 88 0.9 ESE 7 9 4 5 1029.4 1029.4 0.0
31/08:30pm 10.4 8.3 8.2 86 1.1 ESE 9 13 5 7 1029.3 1029.3 0.0
31/08:00pm 10.7 8.9 9.5 92 0.6 ESE 9 11 5 6 1029.3 1029.3 0.0
31/07:30pm 10.3 9.4 9.1 92 0.6 SSE 4 7 2 4 1029.2 1029.2 0.0
31/07:00pm 9.9 9.6 8.5 91 0.7 CALM 0 2 0 1 1029.2 1029.2 0.0
31/06:30pm 10.3 8.9 8.9 91 0.7 ENE 6 6 3 3 1029.0 1029.0 0.0
31/06:00pm 11.0 9.6 9.4 90 0.8 ENE 7 7 4 4 1028.8 1028.8 0.0
31/05:30pm 11.3 9.9 9.4 88 1.0 ENE 7 9 4 5 1028.5 1028.5 0.0
31/05:00pm 12.2 10.8 9.6 84 1.3 ENE 7 9 4 5 1028.4 1028.4 0.0
31/04:30pm 13.3 11.9 9.7 79 1.8 E 7 9 4 5 1028.3 1028.3 0.0
31/04:00pm 13.7 13.2 10.7 82 1.6 SE 4 6 2 3 1028.1 1028.1 0.0
31/03:30pm 14.2 13.3 10.6 79 1.9 SSE 6 7 3 4 1028.2 1028.2 0.0
31/03:00pm 14.2 13.1 10.6 79 1.9 ESE 7 9 4 5 1028.2 1028.2 0.0
31/02:30pm 14.5 13.8 10.1 75 2.3 SE 4 6 2 3 1028.3 1028.3 0.0
31/02:00pm 14.1 13.2 9.3 73 2.4 SE 4 4 2 2 1028.6 1028.6 0.0
31/01:30pm 14.1 13.3 9.7 75 2.3 SE 4 7 2 4 1028.9 1028.9 0.0
31/01:00pm 14.7 13.5 9.7 72 2.6 E 6 7 3 4 1029.1 1029.1 0.0
31/12:30pm 14.5 13.1 9.5 72 2.6 E 7 9 4 5 1029.5 1029.5 0.0
31/12:00pm 13.5 11.1 8.8 73 2.3 ENE 11 13 6 7 1029.9 1029.9 0.0
31/11:30am 13.3 11.3 8.8 74 2.3 E 9 13 5 7 1030.3 1030.3 0.0
31/11:00am 12.6 10.9 8.3 75 2.1 E 7 9 4 5 1030.8 1030.8 0.0
31/10:30am 12.6 10.8 8.1 74 2.2 ENE 7 9 4 5 1031.1 1031.1 0.0
31/10:00am 12.0 10.2 8.1 77 1.9 ENE 7 9 4 5 1031.1 1031.1 0.0
31/09:30am 10.8 9.1 8.2 84 1.3 ENE 7 9 4 5 1030.9 1030.9 0.0
31/09:00am 9.9 8.2 7.7 86 1.0 NE 6 7 3 4 1030.9 1030.9 0.0
31/08:30am 8.8 6.8 7.3 90 0.7 NNE 7 11 4 6 1030.7 1030.7 0.0
31/08:00am 8.1 5.7 6.9 92 0.6 NNE 9 15 5 8 1030.4 1030.4 0.0
31/07:30am 8.0 4.9 7.1 94 0.4 NE 13 17 7 9 1030.2 1030.2 0.0
31/07:00am 8.0 5.2 7.1 94 0.4 NNE 11 17 6 9 1029.8 1029.8 0.0
31/06:30am 8.3 6.0 7.5 95 0.4 NNE 9 13 5 7 1029.5 1029.5 0.0
31/06:00am 8.1 6.1 7.2 94 0.4 NE 7 11 4 6 1029.3 1029.3 0.0
31/05:30am 8.4 6.4 7.3 93 0.5 NNE 7 9 4 5 1029.1 1029.1 0.0
31/05:00am 8.4 6.4 7.2 92 0.6 NE 7 11 4 6 1029.0 1029.0 0.0
31/04:30am 8.7 6.0 7.3 91 0.7 NE 11 13 6 7 1029.0 1029.0 0.0
31/04:00am 8.9 5.8 7.2 89 0.8 NNE 13 17 7 9 1028.9 1028.9 0.0
31/03:30am 9.0 5.9 7.1 88 0.9 NE 13 15 7 8 1028.8 1028.8 0.0
31/03:00am 9.3 5.5 7.6 89 0.8 NNE 17 19 9 10 1028.8 1028.8 0.0
31/02:30am 8.8 5.7 7.3 90 0.7 NNE 13 17 7 9 1028.8 1028.8 0.0
31/02:00am 8.8 6.5 7.3 90 0.7 N 9 13 5 7 1028.8 1028.8 0.0
31/01:30am 9.2 7.0 8.0 92 0.6 N 9 11 5 6 1028.7 1028.7 0.0
31/01:00am 8.6 6.9 7.5 93 0.5 ENE 6 7 3 4 1028.6 1028.6 0.0
31/12:30am 8.8 6.9 7.7 93 0.5 E 7 9 4 5 1028.6 1028.6 0.0
31/12:00am 8.6 6.7 7.4 92 0.6 E 7 9 4 5 1028.8 1028.8 0.0
 
Date/Time
EST
Tmp

°C
App
Tmp
°C
Dew
Point
°C
Rel
Hum
%
Delta-T

°C
Wind Press
QNH
hPa
Press
MSL
hPa
Rain
since
9 am
mm
Dir
 
Spd
km/h
Gust
km/h
Spd
kts
Gust
kts
30/11:30pm 9.1 7.2 7.7 91 0.7 E 7 9 4 5 1028.8 1028.8 0.0
30/11:00pm 9.6 7.4 8.0 90 0.8 E 9 11 5 6 1028.8 1028.8 0.0
30/10:30pm 9.8 7.3 8.4 91 0.7 ESE 11 13 6 7 1028.7 1028.7 0.0
30/10:00pm 9.7 7.5 8.0 89 0.8 E 9 9 5 5 1028.6 1028.6 0.0
30/09:30pm 10.2 7.7 8.3 88 0.9 E 11 13 6 7 1028.5 1028.5 0.0
30/09:00pm 10.8 7.7 8.9 88 0.9 E 15 17 8 9 1028.3 1028.3 0.0
30/08:30pm 10.9 7.1 9.0 88 0.9 E 19 24 10 13 1028.0 1028.0 0.0
30/08:00pm 11.2 7.2 8.9 86 1.1 ESE 20 24 11 13 1027.9 1027.9 0.0
30/07:30pm 11.5 7.1 8.9 84 1.3 ESE 22 26 12 14 1027.8 1027.8 0.0
30/07:00pm 11.9 7.5 9.1 83 1.4 ESE 22 24 12 13 1027.7 1027.7 0.0
30/06:30pm 12.1 8.3 8.9 81 1.6 SE 19 24 10 13 1027.4 1027.4 0.0
30/06:00pm 12.0 8.1 8.7 80 1.6 ESE 19 24 10 13 1027.2 1027.2 0.0
30/05:30pm 12.0 8.5 8.7 80 1.6 ESE 17 20 9 11 1027.0 1027.0 0.0
30/05:00pm 11.6 9.9 8.3 80 1.6 ESE 7 11 4 6 1026.7 1026.7 0.0
30/04:30pm 12.4 11.4 7.3 71 2.5 SSE 2 4 1 2 1026.5 1026.5 0.0
30/04:00pm 13.3 12.2 7.1 66 3.0 SSE 2 6 1 3 1026.3 1026.3 0.0
30/03:30pm 13.7 12.7 5.8 59 3.7 CALM 0 0 0 0 1026.2 1026.2 0.0
30/03:00pm 14.3 13.3 5.7 56 4.1 CALM 0 0 0 0 1026.2 1026.2 0.0
30/02:30pm 14.7 13.7 5.5 54 4.4 CALM 0 0 0 0 1026.1 1026.1 0.0
30/02:00pm 15.6 14.0 6.3 54 4.5 ENE 4 4 2 2 1026.2 1026.2 0.0
30/01:30pm 16.2 14.6 8.2 59 4.1 ENE 6 7 3 4 1026.3 1026.3 0.0
30/01:00pm 16.3 14.9 9.5 64 3.5 ENE 7 9 4 5 1026.5 1026.5 0.0
30/12:30pm 16.6 14.8 9.5 63 3.7 ENE 9 9 5 5 1026.7 1026.7 0.0
30/12:00pm 15.1 13.4 9.7 70 2.8 ENE 9 9 5 5 1026.8 1026.8 0.0
30/11:30am 15.8 14.0 9.5 66 3.3 ENE 9 9 5 5 1027.0 1027.0 0.0
30/11:00am 15.5 14.3 9.4 67 3.1 ENE 6 6 3 3 1027.3 1027.3 0.0
30/10:30am 13.3 11.7 8.2 71 2.5 NNE 6 7 3 4 1027.4 1027.4 0.0
30/10:00am 12.4 10.7 7.7 73 2.3 N 6 7 3 4 1027.3 1027.3 0.0
30/09:30am 11.3 9.4 7.6 78 1.8 NNW 7 9 4 5 1027.1 1027.1 0.0
30/09:00am 11.2 10.0 8.1 81 1.5 NW 4 4 2 2 1026.9 1026.9 0.0
30/08:30am 10.7 9.1 8.1 84 1.3 NW 6 9 3 5 1026.6 1026.6 0.0
30/08:00am 10.8 9.2 8.0 83 1.4 N 6 9 3 5 1026.3 1026.3 0.0
30/07:30am 10.9 9.6 7.8 81 1.5 N 4 6 2 3 1026.1 1026.1 0.0
30/07:00am 10.8 9.2 8.2 84 1.3 NNE 6 11 3 6 1025.9 1025.9 0.0
30/06:30am 10.2 8.9 7.8 85 1.2 E 4 6 2 3 1025.6 1025.6 0.0
30/06:00am 10.2 9.0 8.1 87 1.0 ENE 4 6 2 3 1025.2 1025.2 0.0
30/05:30am 10.5 8.9 8.6 88 0.9 ENE 7 11 4 6 1024.9 1024.9 0.0
30/05:00am 10.7 9.2 9.0 89 0.8 E 7 9 4 5 1024.7 1024.7 0.0
30/04:30am 11.1 10.1 8.8 86 1.1 E 4 6 2 3 1024.4 1024.4 0.0
30/04:00am 11.2 10.2 7.5 78 1.8 ESE 2 6 1 3 1024.3 1024.3 0.0
30/03:30am 10.9 9.1 5.4 69 2.5 SW 4 6 2 3 1024.1 1024.1 0.0
30/03:00am 10.9 9.4 5.2 68 2.6 SW 2 6 1 3 1024.1 1024.1 0.0
30/02:30am 10.9 9.5 5.4 69 2.5 SW 2 6 1 3 1023.9 1023.9 0.0
30/02:00am 11.2 9.4 5.3 67 2.7 WSW 4 6 2 3 1023.8 1023.8 0.0
30/01:30am 11.4 9.4 4.4 62 3.2 W 4 6 2 3 1023.5 1023.5 0.0
30/01:00am 10.9 8.9 4.6 65 2.8 W 4 4 2 2 1023.4 1023.4 0.0
30/12:30am 11.0 8.6 4.2 63 3.0 W 6 6 3 3 1023.4 1023.4 0.0
30/12:00am 10.4 9.1 4.1 65 2.8 CALM 0 2 0 1 1023.3 1023.3 0.0
 
Date/Time
EST
Tmp

°C
App
Tmp
°C
Dew
Point
°C
Rel
Hum
%
Delta-T

°C
Wind Press
QNH
hPa
Press
MSL
hPa
Rain
since
9 am
mm
Dir
 
Spd
km/h
Gust
km/h
Spd
kts
Gust
kts
29/11:30pm 10.9 8.5 4.4 64 2.9 S 6 11 3 6 1023.3 1023.3 0.0
29/11:00pm 10.8 8.2 4.3 64 2.9 S 7 13 4 7 1023.3 1023.3 0.0
29/10:30pm 11.5 8.2 4.5 62 3.2 SW 11 15 6 8 1023.3 1023.3 0.0
29/10:00pm 11.4 9.2 5.1 65 2.9 WSW 6 7 3 4 1023.2 1023.2 0.0
29/09:30pm 11.3 9.0 4.7 64 3.0 W 6 9 3 5 1023.0 1023.0 0.0
29/09:00pm 11.3 8.8 4.7 64 3.0 W 7 9 4 5 1022.9 1022.9 0.0
29/08:30pm 11.5 9.3 5.4 66 2.8 WSW 6 9 3 5 1022.7 1022.7 0.0
29/08:00pm 11.6 9.4 5.3 65 2.9 WSW 6 7 3 4 1022.5 1022.5 0.0
29/07:30pm 11.8 9.6 5.4 65 3.0 SW 6 9 3 5 1022.1 1022.1 0.0
29/07:00pm 11.8 9.6 5.2 64 3.0 WSW 6 9 3 5 1021.8 1021.8 0.0
29/06:30pm 11.5 9.3 5.4 66 2.8 SW 6 9 3 5 1021.5 1021.5 0.0
29/06:00pm 11.7 9.7 6.2 69 2.6 SW 6 9 3 5 1021.3 1021.3 0.0
29/05:30pm 11.6 9.4 6.3 70 2.5 SSW 7 11 4 6 1021.0 1021.0 0.0
29/05:00pm 12.1 9.6 6.6 69 2.6 SW 9 17 5 9 1020.8 1020.8 0.0
29/04:30pm 12.3 9.8 6.4 67 2.8 SW 9 13 5 7 1020.7 1020.7 0.0
29/04:00pm 12.5 10.0 6.5 67 2.8 SW 9 20 5 11 1020.5 1020.5 0.0
29/03:30pm 12.6 9.6 6.2 65 3.0 SW 11 17 6 9 1020.3 1020.3 0.0
29/03:00pm 12.8 9.9 6.4 65 3.0 SW 11 17 6 9 1020.1 1020.1 0.0
29/02:30pm 13.0 9.5 5.4 60 3.5 SW 13 20 7 11 1020.0 1020.0 0.0
29/02:00pm 13.1 9.4 6.2 63 3.3 SSW 15 24 8 13 1019.8 1019.8 0.0
29/01:30pm 13.2 9.1 6.1 62 3.4 SW 17 26 9 14 1019.7 1019.7 0.0
29/01:00pm 13.1 9.1 6.7 65 3.1 SW 17 28 9 15 1019.6 1019.6 0.0
29/12:30pm 13.7 10.5 6.8 63 3.3 SW 13 22 7 12 1019.5 1019.5 0.0
29/12:00pm 13.4 9.4 6.7 64 3.2 SW 17 24 9 13 1019.6 1019.6 0.0
29/11:30am 13.3 9.7 6.6 64 3.2 SW 15 24 8 13 1019.7 1019.7 0.0
29/11:00am 13.4 10.5 6.7 64 3.2 SW 11 20 6 11 1019.6 1019.6 0.0
29/10:30am 13.4 9.5 5.3 58 3.8 SW 15 26 8 14 1019.5 1019.5 0.0
29/10:00am 13.0 9.6 6.1 63 3.3 SW 13 22 7 12 1019.3 1019.3 0.0

Latest Capital City Observations: Canberra | Sydney | Melbourne | Brisbane | Adelaide | Perth | Hobart | Darwin

Other Formats:

Comma delimited format used in spreadsheet applications
http://www.bom.gov.au/fwo/IDV60901/IDV60901.94892.axf

JavaScript Object Notation format (JSON) in row-major order
http://www.bom.gov.au/fwo/IDV60901/IDV60901.94892.json